createdAt,value
2017-08-26T00:02:22.510Z,83.70
2017-08-26T00:04:50.036Z,83.60
2017-08-26T00:07:17.545Z,83.50
2017-08-26T00:09:45.044Z,83.10
2017-08-26T00:12:13.332Z,83.40
2017-08-26T00:14:40.832Z,83.40
2017-08-26T00:17:08.353Z,82.90
2017-08-26T00:19:35.938Z,83.60
2017-08-26T00:22:03.477Z,84.10
2017-08-26T00:24:30.985Z,84.30
2017-08-26T00:26:58.529Z,84.40
2017-08-26T00:29:26.032Z,84.40
2017-08-26T00:31:54.315Z,84.30
2017-08-26T00:34:21.856Z,84.20
2017-08-26T00:36:49.355Z,84.30
2017-08-26T00:39:16.872Z,84.30
2017-08-26T00:41:44.405Z,84.10
2017-08-26T00:44:11.914Z,84.10
2017-08-26T00:46:39.461Z,84.30
2017-08-26T00:49:07.743Z,85.20
2017-08-26T00:51:35.240Z,85.10
2017-08-26T00:54:02.761Z,85.10
2017-08-26T00:56:30.256Z,85.20
2017-08-26T00:58:57.798Z,85.50
2017-08-26T01:01:25.317Z,85.60
2017-08-26T01:03:52.839Z,85.60
2017-08-26T01:06:20.379Z,86.30
2017-08-26T01:08:47.906Z,86.10
2017-08-26T01:11:16.165Z,86.20
2017-08-26T01:13:43.691Z,86.10
2017-08-26T01:16:11.192Z,85.90
2017-08-26T01:18:39.473Z,87.00
2017-08-26T01:21:07.000Z,86.80
2017-08-26T01:23:34.513Z,87.20
2017-08-26T01:26:02.062Z,87.70
2017-08-26T01:28:29.574Z,88.20
2017-08-26T01:30:57.067Z,88.70
2017-08-26T01:33:24.606Z,88.90
2017-08-26T01:35:52.192Z,89.20
2017-08-26T01:38:19.702Z,89.20
2017-08-26T01:40:47.246Z,89.50
2017-08-26T01:43:14.749Z,89.80
2017-08-26T01:45:42.270Z,90.00
2017-08-26T01:48:09.814Z,90.00
2017-08-26T01:50:37.325Z,90.30
2017-08-26T01:53:04.845Z,90.30
2017-08-26T01:55:32.372Z,90.60
2017-08-26T01:57:59.876Z,90.40
2017-08-26T02:00:27.395Z,90.40
2017-08-26T02:02:54.934Z,90.60
2017-08-26T02:05:22.442Z,90.30
2017-08-26T02:07:49.963Z,90.30
2017-08-26T02:10:17.533Z,90.30
2017-08-26T02:12:45.027Z,90.30
2017-08-26T02:15:12.529Z,90.20
2017-08-26T02:17:40.070Z,90.10
2017-08-26T02:20:07.590Z,90.20
2017-08-26T02:22:35.090Z,90.30
2017-08-26T02:25:02.634Z,90.10
2017-08-26T02:27:30.134Z,90.10
2017-08-26T02:29:57.635Z,90.00
2017-08-26T02:32:25.178Z,89.80
2017-08-26T02:34:52.691Z,89.50
2017-08-26T02:37:20.210Z,90.00
2017-08-26T02:39:47.766Z,89.60
2017-08-26T02:42:15.277Z,90.00
2017-08-26T02:44:42.780Z,89.20
2017-08-26T02:47:10.318Z,89.40
2017-08-26T02:49:37.807Z,89.70
2017-08-26T02:52:05.306Z,90.10
2017-08-26T02:54:32.867Z,90.30
2017-08-26T02:57:00.442Z,90.40
2017-08-26T02:59:27.953Z,90.40
2017-08-26T03:01:55.476Z,90.70
2017-08-26T03:04:22.967Z,90.60
2017-08-26T03:06:50.469Z,90.80
2017-08-26T03:09:17.995Z,90.70
2017-08-26T03:11:45.507Z,91.10
2017-08-26T03:14:13.010Z,91.10
2017-08-26T03:16:40.540Z,91.10
2017-08-26T03:19:08.052Z,90.90
2017-08-26T03:21:35.552Z,91.30
2017-08-26T03:24:03.076Z,91.20
2017-08-26T03:26:30.594Z,91.20
2017-08-26T03:28:58.110Z,91.20
2017-08-26T03:31:25.649Z,91.50
2017-08-26T03:33:53.166Z,91.10
2017-08-26T03:36:20.686Z,91.10
2017-08-26T03:38:48.227Z,91.10
2017-08-26T03:41:15.749Z,91.00
2017-08-26T03:43:43.251Z,91.00
2017-08-26T03:46:10.800Z,90.90
2017-08-26T03:48:38.304Z,90.80
2017-08-26T03:51:05.819Z,91.10
2017-08-26T03:53:33.405Z,91.00
2017-08-26T03:56:00.923Z,90.80
2017-08-26T03:58:28.437Z,91.00
2017-08-26T04:00:55.983Z,91.10
2017-08-26T04:03:23.491Z,91.00
2017-08-26T04:05:51.755Z,91.00
2017-08-26T04:08:20.174Z,90.90
2017-08-26T04:10:47.694Z,90.60
2017-08-26T04:13:15.982Z,90.60
2017-08-26T04:15:44.286Z,90.80
2017-08-26T04:18:11.798Z,90.80
2017-08-26T04:20:39.302Z,90.90
2017-08-26T04:23:06.846Z,90.80
2017-08-26T04:25:34.349Z,90.60
2017-08-26T04:28:01.857Z,90.70
2017-08-26T04:30:29.388Z,91.00
2017-08-26T04:32:56.891Z,91.10
2017-08-26T04:35:24.388Z,91.10
2017-08-26T04:37:51.936Z,91.30
2017-08-26T04:40:19.446Z,91.60
2017-08-26T04:42:46.953Z,91.20
2017-08-26T04:45:14.498Z,91.10
2017-08-26T04:47:42.018Z,91.30
2017-08-26T04:50:09.538Z,91.30
2017-08-26T04:52:37.067Z,91.30
2017-08-26T04:55:04.564Z,91.20
2017-08-26T04:57:32.082Z,91.40
2017-08-26T04:59:59.621Z,91.40
2017-08-26T05:02:27.143Z,91.30
2017-08-26T05:04:54.644Z,91.40
2017-08-26T05:07:22.182Z,90.90
2017-08-26T05:09:49.683Z,91.30
2017-08-26T05:12:17.194Z,91.20
2017-08-26T05:14:44.797Z,90.80
2017-08-26T05:17:12.300Z,90.80
2017-08-26T05:19:39.801Z,90.70
2017-08-26T05:22:07.328Z,90.80
2017-08-26T05:24:34.848Z,91.00
2017-08-26T05:27:02.354Z,91.40
2017-08-26T05:29:29.959Z,90.60
2017-08-26T05:31:57.489Z,90.20
2017-08-26T05:34:25.016Z,90.70
2017-08-26T05:36:52.527Z,91.00
2017-08-26T05:39:20.045Z,91.00
2017-08-26T05:41:47.590Z,90.60
2017-08-26T05:44:15.214Z,90.60
2017-08-26T05:46:42.734Z,90.90
2017-08-26T05:49:10.260Z,91.00
2017-08-26T05:51:37.775Z,91.00
2017-08-26T05:54:05.492Z,90.70
2017-08-26T05:56:33.019Z,90.70
2017-08-26T05:59:00.521Z,90.50
2017-08-26T06:01:28.021Z,90.50
2017-08-26T06:03:55.567Z,90.20
2017-08-26T06:06:23.071Z,90.00
2017-08-26T06:08:50.598Z,90.40
2017-08-26T06:11:18.151Z,90.40
2017-08-26T06:13:45.657Z,90.50
2017-08-26T06:16:13.165Z,90.50
2017-08-26T06:18:40.705Z,90.10
2017-08-26T06:21:08.204Z,90.20
2017-08-26T06:23:35.792Z,90.30
2017-08-26T06:26:03.334Z,90.30
2017-08-26T06:28:30.850Z,90.00
2017-08-26T06:30:58.361Z,90.40
2017-08-26T06:33:25.888Z,90.30
2017-08-26T06:35:53.483Z,90.00
2017-08-26T06:38:20.989Z,90.30
2017-08-26T06:40:48.600Z,90.00
2017-08-26T06:43:16.119Z,89.20
2017-08-26T06:45:44.398Z,89.20
2017-08-26T06:48:12.816Z,89.60
2017-08-26T06:50:40.317Z,89.60
2017-08-26T06:53:07.815Z,88.40
2017-08-26T06:55:35.363Z,88.00
2017-08-26T06:58:02.864Z,87.90
2017-08-26T07:00:30.369Z,87.80
2017-08-26T07:02:57.919Z,87.00
2017-08-26T07:05:25.421Z,86.20
2017-08-26T07:07:52.919Z,86.30
2017-08-26T07:10:20.475Z,86.20
2017-08-26T07:12:47.990Z,85.40
2017-08-26T07:15:15.510Z,83.50
2017-08-26T07:17:43.041Z,83.40
2017-08-26T07:20:10.551Z,81.60
2017-08-26T07:22:38.054Z,80.00
2017-08-26T07:25:05.585Z,79.40
2017-08-26T07:27:33.871Z,76.40
2017-08-26T07:30:01.382Z,76.40
2017-08-26T07:32:28.908Z,74.90
2017-08-26T07:34:56.408Z,71.70
2017-08-26T07:37:23.931Z,70.50
2017-08-26T07:39:51.450Z,69.60
2017-08-26T07:42:18.963Z,69.50
2017-08-26T07:44:46.514Z,66.10
2017-08-26T07:47:14.133Z,63.70
2017-08-26T07:49:41.640Z,59.40
2017-08-26T07:52:09.172Z,58.00
2017-08-26T07:54:36.690Z,55.00
2017-08-26T07:57:04.222Z,54.10
2017-08-26T07:59:31.774Z,53.20
2017-08-26T08:01:59.301Z,51.30
2017-08-26T08:04:26.808Z,49.60
2017-08-26T08:06:54.350Z,50.60
2017-08-26T08:09:22.684Z,47.70
2017-08-26T08:11:50.201Z,47.60
2017-08-26T08:14:17.733Z,46.70
2017-08-26T08:16:45.251Z,45.70
2017-08-26T08:19:12.761Z,44.80
2017-08-26T08:21:40.369Z,44.60
2017-08-26T08:24:07.882Z,43.90
2017-08-26T08:26:35.396Z,42.90
2017-08-26T08:29:02.930Z,43.00
2017-08-26T08:31:30.437Z,42.50
2017-08-26T08:33:57.932Z,41.90
2017-08-26T08:36:25.479Z,42.70
2017-08-26T08:38:53.081Z,41.90
2017-08-26T08:41:20.579Z,42.80
2017-08-26T08:43:48.198Z,43.60
2017-08-26T08:46:15.700Z,45.80
2017-08-26T08:48:43.200Z,47.70
2017-08-26T08:51:10.723Z,47.40
2017-08-26T08:53:38.234Z,48.80
2017-08-26T08:56:05.743Z,49.20
2017-08-26T08:58:33.273Z,51.30
2017-08-26T09:01:00.803Z,52.30
2017-08-26T09:03:28.305Z,52.50
2017-08-26T09:05:55.829Z,54.10
2017-08-26T09:08:23.319Z,55.70
2017-08-26T09:10:50.835Z,57.10
2017-08-26T09:13:18.354Z,55.50
2017-08-26T09:15:45.856Z,57.10
2017-08-26T09:18:13.365Z,56.80
2017-08-26T09:20:40.915Z,56.90
2017-08-26T09:23:08.415Z,56.30
2017-08-26T09:25:35.956Z,57.00
2017-08-26T09:28:03.502Z,56.70
2017-08-26T09:30:31.034Z,56.90
2017-08-26T09:32:58.532Z,56.20
2017-08-26T09:35:26.820Z,56.30
2017-08-26T09:37:54.388Z,56.20
2017-08-26T09:40:21.911Z,54.40
2017-08-26T09:42:49.427Z,54.20
2017-08-26T09:45:16.942Z,53.80
2017-08-26T09:47:44.463Z,52.10
2017-08-26T09:50:11.964Z,50.00
2017-08-26T09:52:39.482Z,49.50
2017-08-26T09:55:07.022Z,48.20
2017-08-26T09:57:34.523Z,47.10
2017-08-26T10:00:02.034Z,46.70
2017-08-26T10:02:29.569Z,46.00
2017-08-26T10:04:57.085Z,45.00
2017-08-26T10:07:24.584Z,44.80
2017-08-26T10:09:52.154Z,42.50
2017-08-26T10:12:19.647Z,41.20
2017-08-26T10:14:47.170Z,39.90
2017-08-26T10:17:14.712Z,37.90
2017-08-26T10:19:42.212Z,37.00
2017-08-26T10:22:10.498Z,37.10
2017-08-26T10:24:38.039Z,37.10
2017-08-26T10:27:05.549Z,38.40
2017-08-26T10:29:33.048Z,38.10
2017-08-26T10:32:00.595Z,40.10
2017-08-26T10:34:28.096Z,41.70
2017-08-26T10:36:55.606Z,41.90
2017-08-26T10:39:23.129Z,43.60
2017-08-26T10:41:50.630Z,42.50
2017-08-26T10:44:18.155Z,43.50
2017-08-26T10:46:46.446Z,45.20
2017-08-26T10:49:13.962Z,45.20
2017-08-26T10:51:41.459Z,45.40
2017-08-26T10:54:09.026Z,45.70
2017-08-26T10:56:36.529Z,46.20
2017-08-26T10:59:04.060Z,46.50
2017-08-26T11:01:31.596Z,47.40
2017-08-26T11:03:59.087Z,48.00
2017-08-26T11:06:26.638Z,49.00
2017-08-26T11:08:54.173Z,51.20
2017-08-26T11:11:21.694Z,51.00
2017-08-26T11:13:49.196Z,51.50
2017-08-26T11:16:16.734Z,50.30
2017-08-26T11:18:44.250Z,50.80
2017-08-26T11:21:11.762Z,51.90
2017-08-26T11:23:39.676Z,51.20
2017-08-26T11:26:07.167Z,50.40
2017-08-26T11:28:35.447Z,52.70
2017-08-26T11:31:03.742Z,52.00
2017-08-26T11:33:31.252Z,51.90
2017-08-26T11:35:58.775Z,54.00
2017-08-26T11:38:26.303Z,54.50
2017-08-26T11:40:53.892Z,56.00
2017-08-26T11:43:21.391Z,56.40
2017-08-26T11:45:48.930Z,57.60
2017-08-26T11:48:16.462Z,57.70
2017-08-26T11:50:43.989Z,57.80
2017-08-26T11:53:11.589Z,57.60
2017-08-26T11:55:39.110Z,58.40
2017-08-26T11:58:06.606Z,58.10
2017-08-26T12:00:34.150Z,58.60
2017-08-26T12:03:01.667Z,58.50
2017-08-26T12:05:29.167Z,58.70
2017-08-26T12:07:56.754Z,58.50
2017-08-26T12:10:24.262Z,59.60
2017-08-26T12:12:51.857Z,58.30
2017-08-26T12:15:19.412Z,57.40
2017-08-26T12:17:46.921Z,55.50
2017-08-26T12:20:14.438Z,54.60
2017-08-26T12:22:41.986Z,51.70
2017-08-26T12:25:09.479Z,53.70
2017-08-26T12:27:37.340Z,54.00
2017-08-26T12:30:04.882Z,54.10
2017-08-26T12:32:32.380Z,54.50
2017-08-26T12:34:59.903Z,53.10
2017-08-26T12:37:27.424Z,52.30
2017-08-26T12:39:54.924Z,50.70
2017-08-26T12:42:22.441Z,49.70
2017-08-26T12:44:49.990Z,50.50
2017-08-26T12:47:17.506Z,50.80
2017-08-26T12:49:45.003Z,50.90
2017-08-26T12:52:13.314Z,53.20
2017-08-26T12:54:40.820Z,53.20
2017-08-26T12:57:08.331Z,54.20
2017-08-26T12:59:35.887Z,54.50
2017-08-26T13:02:03.411Z,54.90
2017-08-26T13:04:30.912Z,55.60
2017-08-26T13:06:58.440Z,56.60
2017-08-26T13:09:25.940Z,53.20
2017-08-26T13:11:53.455Z,53.20
2017-08-26T13:14:20.994Z,54.10
2017-08-26T13:16:48.600Z,55.10
2017-08-26T13:19:16.095Z,54.80
2017-08-26T13:21:43.628Z,55.80
2017-08-26T13:24:11.790Z,55.90
2017-08-26T13:26:40.130Z,56.10
2017-08-26T13:29:08.135Z,56.30
2017-08-26T13:31:35.819Z,55.80
2017-08-26T13:34:03.329Z,52.80
2017-08-26T13:36:30.865Z,50.30
2017-08-26T13:38:58.386Z,50.50
2017-08-26T13:41:25.935Z,50.10
2017-08-26T13:43:53.467Z,49.50
2017-08-26T13:46:20.995Z,51.20
2017-08-26T13:48:48.501Z,53.60
2017-08-26T13:51:16.049Z,53.80
2017-08-26T13:53:43.571Z,55.00
2017-08-26T13:56:11.094Z,57.10
2017-08-26T13:58:39.439Z,60.10
2017-08-26T14:01:06.958Z,60.10
2017-08-26T14:03:35.228Z,62.10
2017-08-26T14:06:02.782Z,62.00
2017-08-26T14:08:30.285Z,62.60
2017-08-26T14:10:57.800Z,64.60
2017-08-26T14:13:25.327Z,65.20
2017-08-26T14:15:52.828Z,66.20
2017-08-26T14:18:20.346Z,65.10
2017-08-26T14:20:47.910Z,63.70
2017-08-26T14:23:15.412Z,64.10
2017-08-26T14:25:43.008Z,65.10
2017-08-26T14:28:10.571Z,64.40
2017-08-26T14:30:38.224Z,62.70
2017-08-26T14:33:05.754Z,62.60
2017-08-26T14:35:33.368Z,60.80
2017-08-26T14:38:00.887Z,58.80
2017-08-26T14:40:28.490Z,57.70
2017-08-26T14:42:56.019Z,57.20
2017-08-26T14:45:23.543Z,57.10
2017-08-26T14:47:51.296Z,55.60
2017-08-26T14:50:18.829Z,56.90
2017-08-26T14:52:46.331Z,56.80
2017-08-26T14:55:14.616Z,55.30
2017-08-26T14:57:42.174Z,55.30
2017-08-26T15:00:10.432Z,54.20
2017-08-26T15:02:37.958Z,54.10
2017-08-26T15:05:05.504Z,52.30
2017-08-26T15:07:33.008Z,52.50
2017-08-26T15:10:00.512Z,52.40
2017-08-26T15:12:28.048Z,51.30
2017-08-26T15:14:55.550Z,49.60
2017-08-26T15:17:23.183Z,50.30
2017-08-26T15:19:50.758Z,49.00
2017-08-26T15:22:18.285Z,49.10
2017-08-26T15:24:46.555Z,51.10
2017-08-26T15:27:14.101Z,51.10
2017-08-26T15:29:41.614Z,50.00
2017-08-26T15:32:09.128Z,50.20
2017-08-26T15:34:37.443Z,52.40
2017-08-26T15:37:05.061Z,51.80
2017-08-26T15:39:32.560Z,52.20
2017-08-26T15:42:00.110Z,52.50
2017-08-26T15:44:27.611Z,51.50
2017-08-26T15:46:55.112Z,51.70
2017-08-26T15:49:22.665Z,51.60
2017-08-26T15:51:50.187Z,52.40
2017-08-26T15:54:17.712Z,52.30
2017-08-26T15:56:45.244Z,51.90
2017-08-26T15:59:12.747Z,52.30
2017-08-26T16:01:40.256Z,52.80
2017-08-26T16:04:08.574Z,54.40
2017-08-26T16:06:36.093Z,54.30
2017-08-26T16:09:03.601Z,55.20
2017-08-26T16:11:31.142Z,53.90
2017-08-26T16:13:58.658Z,55.10
2017-08-26T16:16:26.160Z,54.20
2017-08-26T16:18:53.820Z,55.20
2017-08-26T16:21:21.332Z,56.20
2017-08-26T16:23:48.945Z,55.20
2017-08-26T16:26:16.480Z,54.70
2017-08-26T16:28:44.018Z,53.80
2017-08-26T16:31:12.288Z,55.20
2017-08-26T16:33:39.855Z,55.20
2017-08-26T16:36:07.355Z,54.60
2017-08-26T16:38:34.892Z,56.00
2017-08-26T16:41:02.450Z,56.40
2017-08-26T16:43:29.967Z,57.20
2017-08-26T16:45:57.487Z,58.20
2017-08-26T16:48:25.034Z,59.30
2017-08-26T16:50:52.536Z,60.90
2017-08-26T16:53:20.044Z,61.40
2017-08-26T16:55:47.613Z,61.90
2017-08-26T16:58:15.130Z,62.90
2017-08-26T17:00:42.657Z,63.70
2017-08-26T17:03:10.191Z,64.40
2017-08-26T17:05:37.692Z,64.50
2017-08-26T17:08:05.207Z,65.20
2017-08-26T17:10:32.736Z,66.10
2017-08-26T17:13:01.018Z,67.00
2017-08-26T17:15:28.542Z,66.90
2017-08-26T17:17:56.169Z,66.70
2017-08-26T17:20:23.688Z,67.10
2017-08-26T17:22:51.223Z,67.20
2017-08-26T17:25:18.755Z,67.30
2017-08-26T17:27:46.264Z,68.00
2017-08-26T17:30:13.772Z,68.20
2017-08-26T17:32:41.304Z,69.00
2017-08-26T17:35:08.875Z,68.90
2017-08-26T17:37:36.381Z,69.20
2017-08-26T17:40:03.927Z,69.20
2017-08-26T17:42:31.450Z,69.60
2017-08-26T17:44:59.004Z,69.90
2017-08-26T17:47:26.527Z,70.50
2017-08-26T17:49:54.805Z,71.40
2017-08-26T17:52:22.358Z,71.30
2017-08-26T17:54:49.879Z,72.10
2017-08-26T17:57:17.430Z,72.10
2017-08-26T17:59:44.975Z,72.60
2017-08-26T18:02:12.496Z,72.40
2017-08-26T18:04:40.791Z,73.90
2017-08-26T18:07:08.310Z,73.80
2017-08-26T18:09:35.859Z,73.70
2017-08-26T18:12:03.359Z,74.30
2017-08-26T18:14:31.636Z,75.30
2017-08-26T18:16:59.223Z,75.20
2017-08-26T18:19:26.723Z,75.60
2017-08-26T18:21:54.237Z,75.20
2017-08-26T18:24:21.774Z,75.10
2017-08-26T18:26:49.305Z,75.10
2017-08-26T18:29:16.837Z,75.40
2017-08-26T18:31:44.867Z,76.10
2017-08-26T18:34:12.367Z,76.20
2017-08-26T18:36:39.906Z,76.60
2017-08-26T18:39:07.408Z,76.80
2017-08-26T18:41:34.966Z,77.10
2017-08-26T18:44:02.473Z,78.00
2017-08-26T18:46:29.990Z,78.40
2017-08-26T18:48:57.511Z,78.80
2017-08-26T18:51:25.012Z,80.00
2017-08-26T18:53:52.553Z,79.50
2017-08-26T18:56:20.074Z,80.10
2017-08-26T18:58:47.623Z,80.50
2017-08-26T19:01:15.138Z,80.90
2017-08-26T19:03:42.682Z,80.90
2017-08-26T19:06:10.202Z,81.80
2017-08-26T19:08:37.713Z,81.60
2017-08-26T19:11:05.235Z,82.10
2017-08-26T19:13:32.740Z,82.60
2017-08-26T19:16:00.290Z,82.50
2017-08-26T19:18:27.802Z,83.10
2017-08-26T19:20:55.321Z,83.90
2017-08-26T19:23:22.844Z,84.30
2017-08-26T19:25:50.368Z,84.80
2017-08-26T19:28:17.903Z,84.90
2017-08-26T19:30:45.426Z,85.40
2017-08-26T19:33:12.946Z,85.40
2017-08-26T19:35:40.505Z,86.20
2017-08-26T19:38:08.062Z,85.70
2017-08-26T19:40:35.582Z,85.80
2017-08-26T19:43:03.896Z,86.70
2017-08-26T19:45:31.422Z,86.50
2017-08-26T19:47:58.963Z,87.30
2017-08-26T19:50:26.573Z,87.30
2017-08-26T19:52:54.102Z,88.00
2017-08-26T19:55:21.692Z,88.40
2017-08-26T19:57:49.251Z,88.70
2017-08-26T20:00:16.752Z,88.70
2017-08-26T20:02:44.305Z,88.80
2017-08-26T20:05:11.812Z,88.80
2017-08-26T20:07:39.328Z,88.90
2017-08-26T20:10:06.874Z,88.70
2017-08-26T20:12:34.502Z,88.20
2017-08-26T20:15:02.018Z,88.20
2017-08-26T20:17:29.565Z,88.40
2017-08-26T20:19:57.064Z,88.90
2017-08-26T20:22:24.585Z,89.20
2017-08-26T20:24:52.195Z,89.50
2017-08-26T20:27:19.695Z,90.00
2017-08-26T20:29:47.314Z,90.10
2017-08-26T20:32:14.847Z,90.20
2017-08-26T20:34:42.351Z,90.30
2017-08-26T20:37:09.876Z,90.50
2017-08-26T20:39:37.398Z,90.80
2017-08-26T20:42:05.011Z,91.20
2017-08-26T20:44:32.516Z,91.30
2017-08-26T20:47:00.130Z,91.40
2017-08-26T20:49:27.641Z,91.50
2017-08-26T20:51:55.144Z,91.80
2017-08-26T20:54:22.683Z,92.00
2017-08-26T20:56:50.202Z,92.20
2017-08-26T20:59:17.749Z,92.30
2017-08-26T21:01:45.252Z,92.50
2017-08-26T21:04:12.839Z,92.50
2017-08-26T21:06:40.359Z,92.70
2017-08-26T21:09:07.864Z,92.70
2017-08-26T21:11:35.394Z,92.80
2017-08-26T21:14:02.892Z,92.60
2017-08-26T21:16:30.428Z,92.70
2017-08-26T21:18:57.952Z,92.50
2017-08-26T21:21:25.548Z,92.40
2017-08-26T21:23:53.094Z,92.60
2017-08-26T21:26:20.610Z,92.60
2017-08-26T21:28:48.142Z,92.60
2017-08-26T21:31:15.677Z,92.70
2017-08-26T21:33:43.194Z,92.70
2017-08-26T21:36:10.729Z,92.70
2017-08-26T21:38:38.250Z,92.80
2017-08-26T21:41:05.779Z,92.60
2017-08-26T21:43:33.280Z,92.50
2017-08-26T21:46:00.779Z,92.40
2017-08-26T21:48:28.304Z,92.50
2017-08-26T21:50:55.807Z,92.40
2017-08-26T21:53:23.356Z,92.30
2017-08-26T21:55:50.863Z,92.20
2017-08-26T21:58:18.364Z,92.30
2017-08-26T22:00:45.911Z,92.30
2017-08-26T22:03:13.430Z,92.30
2017-08-26T22:05:40.974Z,92.30
2017-08-26T22:08:08.475Z,92.10
2017-08-26T22:10:35.976Z,92.10
2017-08-26T22:13:03.530Z,92.10
2017-08-26T22:15:31.036Z,92.10
2017-08-26T22:17:58.693Z,92.20
2017-08-26T22:20:26.230Z,92.20
2017-08-26T22:22:53.732Z,92.20
2017-08-26T22:25:21.278Z,92.20
2017-08-26T22:27:48.798Z,92.10
2017-08-26T22:30:16.386Z,92.10
2017-08-26T22:32:44.703Z,92.00
2017-08-26T22:35:12.203Z,92.00
2017-08-26T22:37:39.762Z,91.90
2017-08-26T22:40:07.287Z,91.90
2017-08-26T22:42:34.899Z,91.90
2017-08-26T22:45:02.432Z,91.80
2017-08-26T22:47:30.714Z,92.10
2017-08-26T22:49:58.259Z,92.10
2017-08-26T22:52:25.768Z,92.40
2017-08-26T22:54:53.310Z,92.30
2017-08-26T22:57:20.816Z,92.30
2017-08-26T22:59:48.341Z,92.20
2017-08-26T23:02:15.867Z,92.40
2017-08-26T23:04:43.410Z,92.40
2017-08-26T23:07:10.912Z,92.50
2017-08-26T23:09:38.430Z,92.60
2017-08-26T23:12:05.964Z,92.70
2017-08-26T23:14:33.482Z,92.80
2017-08-26T23:17:00.999Z,92.90
2017-08-26T23:19:28.528Z,92.90
2017-08-26T23:21:56.028Z,92.80
2017-08-26T23:24:23.531Z,92.70
2017-08-26T23:26:51.051Z,92.60
2017-08-26T23:29:18.570Z,92.60
2017-08-26T23:31:46.097Z,92.60
2017-08-26T23:34:13.604Z,92.80
2017-08-26T23:36:41.136Z,92.50
2017-08-26T23:39:08.778Z,92.50
2017-08-26T23:41:36.284Z,92.10
2017-08-26T23:44:03.835Z,92.20
2017-08-26T23:46:32.152Z,92.30
2017-08-26T23:48:59.670Z,92.30
2017-08-26T23:51:27.977Z,92.40
2017-08-26T23:53:55.498Z,92.40
2017-08-26T23:56:23.028Z,92.50
2017-08-26T23:58:50.536Z,92.50
